Time;durP1;ratioP1;P1;durP2;ratioP2;P2;SDS_P1;SDS_P2;PMS_P1;PMS_P2;Temp;Humidity;BMP_temperature;BMP_pressure;BME280_temperature;BME280_humidity;BME280_pressure;Samples;Min_cycle;Max_cycle;Signal;HPM_P1;HPM_P2
2022/07/20 00:02:06;;;;;;;5.75;3.10;;;21.90;99.90;;;-144.05;42.31;125687.94;6143549;23;19990;-86
2022/07/20 00:04:32;;;;;;;5.90;3.10;;;21.80;99.90;;;-144.05;42.79;125687.94;6154443;23;20002;-85
2022/07/20 00:06:58;;;;;;;4.68;3.10;;;21.80;99.90;;;-144.05;42.09;125687.94;6153838;23;20049;-85
2022/07/20 00:12:09;;;;;;;5.80;2.83;;;21.60;99.90;;;-144.05;42.31;125687.94;6153936;23;20022;-86
2022/07/20 00:14:35;;;;;;;4.43;2.60;;;21.50;99.90;;;-144.05;42.14;125687.94;6128647;23;20042;-85
2022/07/20 00:17:01;;;;;;;4.68;3.30;;;21.40;99.90;;;-144.05;42.56;125687.94;6154082;23;20040;-84
2022/07/20 00:19:27;;;;;;;4.13;2.70;;;21.30;99.90;;;-144.05;42.82;125687.94;6152851;23;20006;-85
2022/07/20 00:21:53;;;;;;;5.03;2.75;;;21.20;99.90;;;-144.05;43.03;125687.94;6120956;23;20014;-86
2022/07/20 00:24:19;;;;;;;4.10;3.35;;;21.20;99.90;;;-144.05;43.12;125687.94;6131485;23;20010;-86
2022/07/20 00:26:45;;;;;;;6.63;3.00;;;21.10;99.90;;;-144.05;43.16;125687.94;6107195;23;20021;-85
2022/07/20 00:29:10;;;;;;;3.40;2.67;;;21.10;99.90;;;-144.05;43.46;125687.94;6106510;23;20005;-88
2022/07/20 00:31:36;;;;;;;4.32;2.70;;;21.10;99.90;;;-144.05;43.61;125687.94;6132152;23;20029;-86
2022/07/20 00:34:03;;;;;;;4.65;3.05;;;21.00;99.90;;;-144.05;44.13;125687.94;6130228;23;20013;-86
2022/07/20 00:36:29;;;;;;;5.63;3.05;;;21.00;99.90;;;-144.05;43.97;125687.94;6132425;23;20013;-86
2022/07/20 00:38:55;;;;;;;6.35;3.20;;;20.90;99.90;;;-144.05;44.13;125687.94;6130039;23;20462;-87
2022/07/20 00:41:21;;;;;;;5.82;3.15;;;20.80;99.90;;;-144.05;44.39;125687.94;6105321;23;20013;-87
2022/07/20 00:43:59;;;;;;;4.35;2.90;;;20.80;99.90;;;-144.05;43.84;125687.94;6129757;23;20017;-86
2022/07/20 00:46:29;;;;;;;6.88;3.30;;;20.70;99.90;;;-144.05;43.89;125687.94;6106014;23;20010;-85
2022/07/20 00:48:56;;;;;;;6.75;2.95;;;20.70;99.90;;;-144.05;43.48;125687.94;6105467;23;20010;-86
2022/07/20 00:51:23;;;;;;;6.07;3.10;;;20.60;99.90;;;-144.05;43.33;125687.94;6106288;23;20006;-85
2022/07/20 00:53:51;;;;;;;3.53;2.72;;;20.50;99.90;;;-144.05;43.12;125687.94;6129017;23;20010;-86
2022/07/20 00:56:19;;;;;;;4.85;3.00;;;20.50;99.90;;;-144.05;43.48;125687.94;6129188;23;20130;-86
2022/07/20 00:58:46;;;;;;;6.25;3.17;;;20.50;99.90;;;-144.05;43.86;125687.94;6130504;23;20025;-86
2022/07/20 01:01:13;;;;;;;6.43;2.90;;;20.50;99.90;;;-144.05;44.14;125687.94;6129558;23;20042;-86
2022/07/20 01:03:40;;;;;;;8.65;3.50;;;20.40;99.90;;;-144.05;44.08;125687.94;6106477;23;20017;-86
2022/07/20 01:06:08;;;;;;;10.75;3.10;;;20.40;99.90;;;-144.05;44.13;125687.94;6132644;23;20444;-85
2022/07/20 01:08:34;;;;;;;12.70;3.90;;;20.40;99.90;;;-144.05;44.23;125687.94;6138948;23;20026;-85
2022/07/20 01:11:01;;;;;;;21.60;5.10;;;20.30;99.90;;;-144.05;44.50;125687.94;6129482;23;20006;-86
2022/07/20 01:13:29;;;;;;;11.55;4.32;;;20.30;99.90;;;-144.05;44.30;125687.94;6130026;23;20321;-86
2022/07/20 01:15:55;;;;;;;12.73;3.50;;;20.30;99.90;;;-144.05;44.25;125687.94;6104831;23;20061;-85
2022/07/20 01:18:21;;;;;;;21.42;4.60;;;20.20;99.90;;;-144.05;44.57;125687.94;6129405;23;20479;-86
2022/07/20 01:20:50;;;;;;;29.58;5.75;;;20.10;99.90;;;-144.05;44.91;125687.94;6131953;23;20255;-86
2022/07/20 01:23:19;;;;;;;23.70;5.20;;;20.00;99.90;;;-144.05;45.64;125687.94;6132583;23;20025;-87
2022/07/20 01:25:45;;;;;;;22.42;5.25;;;19.90;99.90;;;-144.05;45.95;125687.94;6132331;23;20017;-87
2022/07/20 01:28:14;;;;;;;19.73;4.53;;;19.90;99.90;;;-144.05;46.31;125687.94;6128506;23;20477;-85
2022/07/20 01:30:41;;;;;;;14.57;3.85;;;19.80;99.90;;;-144.05;46.25;125687.94;6104762;23;20006;-86
2022/07/20 01:33:08;;;;;;;11.35;3.38;;;19.80;99.90;;;-144.05;45.27;125687.94;6105223;23;20397;-85
2022/07/20 01:35:34;;;;;;;7.30;3.20;;;19.80;99.90;;;-144.05;44.54;125687.94;6130185;23;20070;-86
2022/07/20 01:38:00;;;;;;;10.95;3.88;;;19.70;99.90;;;-144.05;44.61;125687.94;6131492;23;20100;-86
2022/07/20 01:40:26;;;;;;;10.52;3.60;;;19.70;99.90;;;-144.05;44.47;125687.94;6105591;23;20014;-85
2022/07/20 01:42:52;;;;;;;5.95;3.10;;;19.70;99.90;;;-144.05;45.49;125687.94;6129948;23;20020;-86
2022/07/20 01:45:19;;;;;;;6.50;3.15;;;19.70;99.90;;;-144.05;46.46;125687.94;6128614;23;20010;-86
2022/07/20 01:47:45;;;;;;;5.78;3.22;;;19.60;99.90;;;-144.05;47.10;125687.94;6103499;23;20020;-85
2022/07/20 01:50:11;;;;;;;6.57;3.25;;;19.60;99.90;;;-144.05;47.05;125687.94;6130165;23;20434;-86
2022/07/20 01:52:37;;;;;;;4.13;2.78;;;19.50;99.90;;;-144.05;47.36;125687.94;6128039;23;20093;-86
2022/07/20 01:55:04;;;;;;;8.18;3.00;;;19.50;99.90;;;-144.05;48.25;125687.94;6129927;23;20002;-86
2022/07/20 01:57:31;;;;;;;4.35;2.83;;;19.40;99.90;;;-144.05;48.83;125687.94;6129503;23;20006;-86
2022/07/20 01:59:57;;;;;;;5.70;3.10;;;19.40;99.90;;;-144.05;48.31;125687.94;6127720;23;20010;-86
2022/07/20 02:02:23;;;;;;;5.05;3.28;;;19.40;99.90;;;-144.05;47.98;125687.94;6129455;23;20077;-85
2022/07/20 02:04:49;;;;;;;6.07;3.38;;;19.40;99.90;;;-144.05;47.53;125687.94;6129810;23;20021;-85
2022/07/20 02:07:15;;;;;;;5.03;3.28;;;19.40;99.90;;;-144.05;46.58;125687.94;6129059;23;20064;-85
2022/07/20 02:09:41;;;;;;;4.70;3.60;;;19.50;99.90;;;-144.05;44.91;125687.94;6127838;23;20022;-86
2022/07/20 02:12:07;;;;;;;6.85;3.42;;;19.70;99.90;;;-144.05;42.50;125687.94;6128311;23;20014;-86
2022/07/20 02:14:33;;;;;;;6.05;3.55;;;19.90;99.90;;;-144.05;41.50;125687.94;6128085;23;20271;-86
2022/07/20 02:16:59;;;;;;;8.07;3.60;;;20.20;99.90;;;-144.05;40.60;125687.94;6128301;23;20037;-85
2022/07/20 02:19:25;;;;;;;7.93;3.70;;;20.40;99.90;;;-144.05;40.15;125687.94;6103125;23;20005;-86
2022/07/20 02:21:51;;;;;;;4.05;3.20;;;20.70;99.90;;;-144.05;40.49;125687.94;6128563;23;20017;-86
2022/07/20 02:24:17;;;;;;;6.72;3.75;;;20.80;99.90;;;-144.05;40.19;125687.94;6127367;23;20013;-85
2022/07/20 02:26:43;;;;;;;5.25;3.28;;;20.80;99.90;;;-144.05;40.94;125687.94;6102605;23;20018;-86
2022/07/20 02:29:08;;;;;;;5.43;3.50;;;20.80;99.90;;;-144.05;40.23;125687.94;6127168;23;20041;-85
2022/07/20 02:31:34;;;;;;;4.85;3.42;;;20.80;99.90;;;-144.05;41.80;125687.94;6127223;23;20014;-87
2022/07/20 02:34:01;;;;;;;4.55;3.28;;;20.80;99.90;;;-144.05;43.24;125687.94;6127923;23;20012;-86
2022/07/20 02:36:27;;;;;;;6.50;3.42;;;20.60;99.90;;;-144.05;44.51;125687.94;6126760;23;20049;-87
2022/07/20 02:38:53;;;;;;;7.43;3.20;;;20.40;99.90;;;-144.05;42.41;125687.94;6101742;23;20405;-86
2022/07/20 02:41:19;;;;;;;8.30;3.45;;;20.40;99.90;;;-144.05;42.81;125687.94;6126862;23;20006;-86
2022/07/20 02:43:45;;;;;;;6.95;3.13;;;20.30;99.90;;;-144.05;41.15;125687.94;6102197;23;20012;-86
2022/07/20 02:46:11;;;;;;;4.15;3.00;;;20.30;99.90;;;-144.05;43.65;125687.94;6126699;23;20009;-87
2022/07/20 02:48:38;;;;;;;6.28;3.80;;;20.30;99.90;;;-144.05;43.46;125687.94;6126908;23;20467;-86
2022/07/20 02:51:04;;;;;;;8.48;3.22;;;20.30;99.90;;;-144.05;43.84;125687.94;6126632;23;20356;-87
2022/07/20 02:53:30;;;;;;;4.93;3.15;;;20.20;99.90;;;-144.05;45.23;125687.94;6126900;23;19998;-85
2022/07/20 02:55:56;;;;;;;3.25;2.92;;;20.10;99.90;;;-144.05;46.76;125687.94;6128793;23;20081;-84
2022/07/20 02:58:22;;;;;;;6.75;3.30;;;19.80;99.90;;;-144.05;47.45;125687.94;6102938;23;20428;-89
2022/07/20 03:00:48;;;;;;;4.95;3.60;;;19.60;99.90;;;-144.05;46.21;125687.94;6129903;23;20002;-85
2022/07/20 03:03:14;;;;;;;6.30;2.92;;;19.50;99.90;;;-144.05;46.33;125687.94;6130503;23;20012;-86
2022/07/20 03:05:40;;;;;;;5.60;3.42;;;19.50;99.90;;;-144.05;47.51;125687.94;6104657;23;20013;-84
2022/07/20 03:08:08;;;;;;;8.77;3.55;;;19.30;99.90;;;-144.05;48.72;125687.94;6103932;23;20014;-85
2022/07/20 03:10:35;;;;;;;6.15;3.03;;;19.20;99.90;;;-144.05;49.06;125687.94;6129797;23;20010;-85
2022/07/20 03:13:02;;;;;;;3.83;2.88;;;19.10;99.90;;;-144.05;49.31;125687.94;6130421;23;20033;-85
2022/07/20 03:15:28;;;;;;;4.57;3.08;;;19.00;99.90;;;-144.05;49.53;125687.94;6133088;23;20053;-86
2022/07/20 03:17:55;;;;;;;5.53;4.25;;;18.90;99.90;;;-144.05;49.90;125687.94;6134831;23;20002;-86
2022/07/20 03:20:26;;;;;;;6.55;3.65;;;18.80;99.90;;;-144.05;49.97;125687.94;6129089;23;20030;-85
2022/07/20 03:22:55;;;;;;;9.32;3.92;;;18.80;99.90;;;-144.05;49.93;125687.94;6127642;23;20064;-85
2022/07/20 03:25:22;;;;;;;7.40;3.80;;;18.80;99.90;;;-144.05;49.93;125687.94;6126829;23;20017;-86
2022/07/20 03:27:53;;;;;;;6.40;4.05;;;18.80;99.90;;;-144.05;49.47;125687.94;6102503;23;20352;-85
2022/07/20 03:30:20;;;;;;;5.60;3.38;;;18.80;99.90;;;-144.05;49.59;125687.94;6129062;23;20014;-85
2022/07/20 03:32:46;;;;;;;6.10;4.10;;;18.70;99.90;;;-144.05;49.98;125687.94;6128378;23;20013;-86
2022/07/20 03:35:12;;;;;;;5.60;3.70;;;18.70;99.90;;;-144.05;50.39;125687.94;6129092;23;20029;-85
2022/07/20 03:37:38;;;;;;;7.25;3.30;;;18.60;99.90;;;-144.05;50.27;125687.94;6127859;23;20010;-85
2022/07/20 03:40:07;;;;;;;6.15;3.55;;;18.60;99.90;;;-144.05;50.29;125687.94;6129251;23;20002;-85
2022/07/20 03:42:34;;;;;;;12.52;4.32;;;18.60;99.90;;;-144.05;50.47;125687.94;6126988;23;20024;-87
2022/07/20 03:45:01;;;;;;;7.18;3.92;;;18.70;99.90;;;-144.05;50.88;125687.94;6126341;23;20437;-86
2022/07/20 03:47:27;;;;;;;5.63;3.83;;;18.60;99.90;;;-144.05;50.05;125687.94;6127040;23;20010;-87
2022/07/20 03:49:53;;;;;;;13.13;4.32;;;18.70;99.90;;;-144.05;49.35;125687.94;6129210;23;20034;-86
2022/07/20 03:52:21;;;;;;;7.05;4.20;;;18.70;99.90;;;-144.05;49.10;125687.94;6104851;23;20010;-87
2022/07/20 03:54:47;;;;;;;7.32;3.80;;;18.80;99.90;;;-144.05;47.82;125687.94;6130831;23;20060;-85
2022/07/20 03:57:14;;;;;;;6.68;3.72;;;18.90;99.90;;;-144.05;47.80;125687.94;6130409;23;20010;-85
2022/07/20 03:59:44;;;;;;;7.05;4.07;;;19.00;99.90;;;-144.05;48.20;125687.94;6128772;23;20020;-88
2022/07/20 04:05:35;;;;;;;9.00;4.10;;;19.20;99.90;;;-144.05;49.02;125687.94;6070879;23;20432;-88
2022/07/20 04:08:18;;;;;;;7.63;3.78;;;19.10;99.90;;;-144.05;49.68;125687.94;6103468;23;20471;-87
2022/07/20 04:10:50;;;;;;;10.60;4.35;;;19.10;99.90;;;-144.05;50.19;125687.94;6105135;23;20014;-88
2022/07/20 04:14:43;;;;;;;;;;;;;;;;;;;;;
2022/07/20 04:17:21;;;;;;;8.75;3.95;;;19.00;99.90;;;-144.05;50.68;125687.94;6131789;23;20097;-89
2022/07/20 04:19:56;;;;;;;5.35;3.85;;;18.90;99.90;;;-144.05;50.40;125687.94;6129663;23;20006;-85
2022/07/20 04:22:33;;;;;;;7.63;4.40;;;19.00;99.90;;;-144.05;49.42;125687.94;6131403;23;20009;-88
2022/07/20 04:28:10;;;;;;;9.20;4.03;;;19.30;99.90;;;-144.05;46.87;125687.94;6129900;23;20016;-87
2022/07/20 04:30:38;;;;;;;5.95;3.53;;;19.50;99.90;;;-144.05;45.05;125687.94;6102915;23;20010;-87
2022/07/20 04:33:05;;;;;;;9.38;4.22;;;19.80;99.90;;;-144.05;45.94;125687.94;6103460;23;20355;-89
2022/07/20 04:35:59;;;;;;;6.60;4.72;;;20.00;99.90;;;-144.05;44.74;125687.94;6104477;23;20014;-87
2022/07/20 04:39:14;;;;;;;8.82;4.07;;;20.40;99.90;;;-144.05;44.85;125687.94;6128039;23;20304;-86
2022/07/20 04:41:41;;;;;;;11.68;4.45;;;20.50;99.90;;;-144.05;45.39;125687.94;6096425;23;20090;-87
2022/07/20 04:44:15;;;;;;;10.02;4.78;;;20.70;99.90;;;-144.05;46.78;125687.94;6128429;23;20017;-88
2022/07/20 04:47:01;;;;;;;12.73;5.07;;;20.60;99.90;;;-144.05;46.92;125687.94;6132638;23;20030;-87
2022/07/20 04:49:33;;;;;;;12.38;4.80;;;20.60;99.90;;;-144.05;46.54;125687.94;6129403;23;20017;-88
2022/07/20 04:52:14;;;;;;;;;;;;;;;;;;;;;
2022/07/20 04:55:10;;;;;;;13.32;4.65;;;20.60;99.90;;;-144.05;45.65;125687.94;6133794;23;20026;-87
2022/07/20 04:57:39;;;;;;;12.70;4.63;;;20.80;99.90;;;-144.05;45.50;125687.94;6106697;23;20009;-86
2022/07/20 05:00:07;;;;;;;18.48;4.57;;;20.90;99.90;;;-144.05;44.82;125687.94;6129283;23;20381;-87
2022/07/20 05:02:44;;;;;;;14.20;4.78;;;21.10;99.90;;;-144.05;45.12;125687.94;6138942;23;20018;-85
2022/07/20 05:05:16;;;;;;;10.52;4.60;;;21.30;99.90;;;-144.05;45.26;125687.94;6153107;23;20018;-87
2022/07/20 05:08:47;;;;;;;9.18;4.18;;;21.40;99.90;;;-144.05;44.74;125687.94;6128234;23;20006;-87
2022/07/20 05:11:14;;;;;;;11.43;4.43;;;21.50;99.90;;;-144.05;44.61;125687.94;6127795;23;20018;-88
2022/07/20 05:13:40;;;;;;;8.88;4.45;;;21.70;99.90;;;-144.05;44.38;125687.94;6130864;23;20017;-88
2022/07/20 05:16:14;;;;;;;10.07;4.10;;;21.80;99.90;;;-144.05;43.76;125687.94;6129900;23;20420;-85
2022/07/20 05:19:30;;;;;;;9.38;3.88;;;22.10;99.90;;;-144.05;43.27;125687.94;6129225;23;20424;-87
2022/07/20 05:22:19;;;;;;;12.82;4.15;;;22.30;99.90;;;-144.05;43.10;125687.94;6128292;23;20074;-88
2022/07/20 05:28:43;;;;;;;9.30;4.05;;;22.80;99.90;;;-144.05;40.65;125687.94;6012822;23;20521;-85
2022/07/20 05:31:10;;;;;;;10.85;4.30;;;23.30;99.90;;;-144.05;40.03;125687.94;6062887;23;20060;-88
2022/07/20 05:33:37;;;;;;;14.25;4.18;;;23.70;99.90;;;-144.05;40.20;125687.94;6129538;23;20068;-89
2022/07/20 05:36:04;;;;;;;7.47;3.60;;;24.00;99.90;;;-144.05;35.64;125687.94;6128398;23;20041;-86
2022/07/20 05:38:32;;;;;;;7.13;3.65;;;24.70;96.10;;;-144.05;33.81;125687.94;6129199;23;20321;-89
2022/07/20 05:41:01;;;;;;;8.05;3.22;;;25.60;90.20;;;-144.05;32.44;125687.94;6130731;23;20006;-87
2022/07/20 05:43:30;;;;;;;6.13;4.03;;;26.20;81.00;;;-144.05;31.72;125687.94;6130278;23;20463;-88
2022/07/20 05:46:11;;;;;;;6.47;2.90;;;26.70;75.30;;;-144.05;31.76;125687.94;6129133;23;20014;-86
2022/07/20 05:48:37;;;;;;;8.82;3.17;;;27.20;74.80;;;-144.05;33.11;125687.94;6104125;23;20475;-87
2022/07/20 05:51:03;;;;;;;8.90;3.50;;;27.40;79.20;;;-144.05;34.39;125687.94;6128513;23;20009;-86
2022/07/20 05:53:31;;;;;;;9.95;4.53;;;27.50;83.80;;;-144.05;34.76;125687.94;6130136;23;20005;-87
2022/07/20 05:55:57;;;;;;;11.38;4.82;;;27.50;86.70;;;-144.05;34.33;125687.94;6130374;23;20012;-88
2022/07/20 05:58:23;;;;;;;7.22;3.28;;;27.50;85.10;;;-144.05;30.36;125687.94;6104892;23;20017;-86
2022/07/20 06:00:52;;;;;;;5.10;3.33;;;27.60;68.70;;;-144.05;29.88;125687.94;6129149;23;20089;-89
2022/07/20 06:03:18;;;;;;;7.82;2.90;;;28.20;65.40;;;-144.05;28.65;125687.94;6129462;23;20010;-85
2022/07/20 06:05:44;;;;;;;5.13;2.88;;;28.60;61.30;;;-144.05;28.82;125687.94;6130061;23;20478;-87
2022/07/20 06:08:16;;;;;;;7.03;2.90;;;29.00;60.40;;;-144.05;28.64;125687.94;6105568;23;20009;-85
2022/07/20 06:10:42;;;;;;;7.35;3.35;;;29.30;59.90;;;-144.05;28.42;125687.94;6132005;23;19998;-89
2022/07/20 06:13:13;;;;;;;15.07;3.70;;;29.50;59.20;;;-144.05;27.63;125687.94;6129088;23;20002;-85
2022/07/20 06:15:39;;;;;;;8.93;3.13;;;29.70;56.40;;;-144.05;27.60;125687.94;6121221;23;20006;-86
2022/07/20 06:18:06;;;;;;;6.53;2.88;;;29.80;55.70;;;-144.05;27.45;125687.94;6152747;23;20025;-86
2022/07/20 06:20:32;;;;;;;8.48;3.28;;;29.90;54.50;;;-144.05;27.54;125687.94;6137570;23;20006;-84
2022/07/20 06:22:58;;;;;;;5.95;2.80;;;30.00;54.40;;;-144.05;27.44;125687.94;6126283;23;20029;-85
2022/07/20 06:25:25;;;;;;;5.03;3.10;;;30.10;54.50;;;-144.05;27.13;125687.94;6129348;23;20010;-88
2022/07/20 06:27:51;;;;;;;9.13;3.47;;;30.30;53.60;;;-144.05;27.29;125687.94;6129230;23;20009;-88
2022/07/20 06:30:17;;;;;;;6.40;3.17;;;30.30;53.40;;;-144.05;27.09;125687.94;6129076;23;20012;-87
2022/07/20 06:32:43;;;;;;;5.93;3.10;;;30.50;53.30;;;-144.05;27.11;125687.94;6130180;23;20017;-87
2022/07/20 06:35:10;;;;;;;4.40;2.75;;;30.80;53.60;;;-144.05;26.85;125687.94;6131293;23;20002;-87
2022/07/20 06:37:39;;;;;;;6.80;3.05;;;30.90;52.90;;;-144.05;26.83;125687.94;6130791;23;20006;-90
2022/07/20 06:40:07;;;;;;;7.78;3.20;;;31.10;52.80;;;-144.05;26.97;125687.94;6138711;23;20069;-87
2022/07/20 06:42:36;;;;;;;7.00;3.42;;;30.90;53.00;;;-144.05;26.66;125687.94;6130247;23;20014;-88
2022/07/20 06:45:04;;;;;;;7.40;3.75;;;31.00;53.30;;;-144.05;26.88;125687.94;6106339;23;20018;-87
2022/07/20 06:47:31;;;;;;;6.88;3.20;;;30.90;53.00;;;-144.05;26.98;125687.94;6132722;23;20344;-86
2022/07/20 06:49:57;;;;;;;6.20;3.05;;;31.00;53.20;;;-144.05;27.42;125687.94;6131651;23;20021;-86
2022/07/20 06:52:27;;;;;;;14.88;3.72;;;31.20;54.60;;;-144.05;26.55;125687.94;6132105;23;20014;-86
2022/07/20 06:54:53;;;;;;;13.38;3.60;;;31.30;52.10;;;-144.05;26.66;125687.94;6132314;23;20006;-84
2022/07/20 06:57:19;;;;;;;11.57;3.30;;;31.10;51.20;;;-144.05;27.15;125687.94;6131962;23;20334;-87
2022/07/20 06:59:45;;;;;;;7.60;3.45;;;31.00;52.70;;;-144.05;27.15;125687.94;6110079;23;20061;-87
2022/07/20 07:02:11;;;;;;;9.15;2.97;;;31.20;53.50;;;-144.05;26.84;125687.94;6139728;23;20022;-84
2022/07/20 07:04:41;;;;;;;8.93;4.07;;;31.20;52.70;;;-144.05;26.81;125687.94;6111154;23;20006;-86
2022/07/20 07:07:12;;;;;;;6.20;3.60;;;31.20;52.40;;;-144.05;26.71;125687.94;6136285;23;20069;-85
2022/07/20 07:09:38;;;;;;;5.38;3.30;;;31.30;52.20;;;-144.05;26.62;125687.94;6110239;23;20066;-86
2022/07/20 07:12:09;;;;;;;8.88;3.90;;;31.40;52.20;;;-144.05;26.66;125687.94;6131477;23;20016;-90
2022/07/20 07:14:38;;;;;;;8.15;3.80;;;31.30;51.60;;;-144.05;26.81;125687.94;6133529;23;20013;-85
2022/07/20 07:17:09;;;;;;;8.55;3.97;;;31.30;52.60;;;-144.05;27.16;125687.94;6134317;23;20076;-85
2022/07/20 07:19:35;;;;;;;8.48;4.68;;;31.30;53.10;;;-144.05;26.82;125687.94;6134331;23;20029;-88
2022/07/20 07:22:01;;;;;;;11.38;5.03;;;31.30;52.70;;;-144.05;27.21;125687.94;6134521;23;20042;-87
2022/07/20 07:24:29;;;;;;;12.07;5.68;;;31.10;52.80;;;-144.05;27.58;125687.94;6131402;23;20061;-87
2022/07/20 07:27:07;;;;;;;7.78;5.72;;;30.90;53.60;;;-144.05;27.93;125687.94;6107455;23;20041;-84
2022/07/20 07:29:36;;;;;;;10.50;6.45;;;31.10;55.60;;;-144.05;28.39;125687.94;6131344;23;20006;-87
2022/07/20 07:32:08;;;;;;;13.65;8.40;;;31.20;55.80;;;-144.05;28.50;125687.94;6108349;23;20020;-87
2022/07/20 07:34:37;;;;;;;14.50;9.70;;;31.40;56.30;;;-144.05;28.94;125687.94;6131844;23;20034;-86
2022/07/20 07:37:06;;;;;;;15.77;9.52;;;31.40;56.90;;;-144.05;29.19;125687.94;6131376;23;20082;-87
2022/07/20 07:39:35;;;;;;;14.98;10.45;;;31.40;57.80;;;-144.05;29.50;125687.94;6131974;23;20009;-86
2022/07/20 07:42:01;;;;;;;20.98;11.63;;;31.40;58.40;;;-144.05;29.72;125687.94;6131166;23;20020;-88
2022/07/20 07:44:27;;;;;;;24.52;11.43;;;31.30;58.70;;;-144.05;30.35;125687.94;6105641;23;20009;-89
2022/07/20 07:46:53;;;;;;;21.52;11.57;;;31.10;59.40;;;-144.05;30.26;125687.94;6106778;23;20339;-86
2022/07/20 07:49:23;;;;;;;21.05;10.98;;;31.00;59.50;;;-144.05;30.40;125687.94;6106226;23;20168;-87
2022/07/20 07:51:51;;;;;;;21.85;11.27;;;31.30;60.80;;;-144.05;30.09;125687.94;6106125;23;20010;-85
2022/07/20 07:54:19;;;;;;;23.48;11.55;;;31.30;59.90;;;-144.05;30.12;125687.94;6107353;23;20017;-86
2022/07/20 07:56:45;;;;;;;16.75;11.10;;;31.30;59.40;;;-144.05;30.53;125687.94;6134488;23;20002;-89
2022/07/20 07:59:11;;;;;;;17.35;11.77;;;31.30;60.40;;;-144.05;30.35;125687.94;6105825;23;20068;-84
2022/07/20 08:01:37;;;;;;;19.67;11.95;;;31.40;61.10;;;-144.05;30.53;125687.94;6106034;23;20091;-86
2022/07/20 08:04:05;;;;;;;19.50;11.90;;;31.20;60.50;;;-144.05;30.69;125687.94;6104174;23;20065;-84
2022/07/20 08:06:32;;;;;;;20.05;11.98;;;31.30;61.30;;;-144.05;30.83;125687.94;6128808;23;20036;-84
2022/07/20 08:09:01;;;;;;;18.15;12.40;;;31.30;61.60;;;-144.05;31.03;125687.94;6129291;23;20399;-86
2022/07/20 08:11:27;;;;;;;18.73;12.27;;;31.20;61.30;;;-144.05;31.28;125687.94;6104668;23;20033;-86
2022/07/20 08:13:53;;;;;;;24.83;13.82;;;31.10;61.80;;;-144.05;31.04;125687.94;6106447;23;20017;-87
2022/07/20 08:16:19;;;;;;;16.63;12.93;;;31.10;61.70;;;-144.05;31.19;125687.94;6106177;23;20014;-85
2022/07/20 08:18:45;;;;;;;19.38;13.32;;;31.10;62.60;;;-144.05;30.97;125687.94;6130638;23;20010;-86
2022/07/20 08:21:11;;;;;;;20.83;13.38;;;31.30;62.60;;;-144.05;31.08;125687.94;6107670;23;20021;-88
2022/07/20 08:23:37;;;;;;;20.40;13.50;;;31.30;62.60;;;-144.05;31.48;125687.94;6135713;23;20407;-88
2022/07/20 08:26:04;;;;;;;19.00;13.75;;;31.20;63.00;;;-144.05;31.89;125687.94;6138692;23;20010;-87
2022/07/20 08:28:44;;;;;;;17.80;13.73;;;31.10;63.30;;;-144.05;31.87;125687.94;6129815;23;20025;-82
2022/07/20 08:31:13;;;;;;;21.38;13.65;;;31.10;64.60;;;-144.05;31.95;125687.94;6134765;23;20034;-84
2022/07/20 08:33:39;;;;;;;28.15;15.25;;;31.20;64.70;;;-144.05;31.38;125687.94;6109749;23;20002;-86
2022/07/20 08:36:06;;;;;;;19.02;14.32;;;31.20;63.90;;;-144.05;31.34;125687.94;6111277;23;20467;-85
2022/07/20 08:38:32;;;;;;;18.92;13.43;;;31.20;63.40;;;-144.05;31.32;125687.94;6107115;23;20002;-86
2022/07/20 08:40:58;;;;;;;20.75;14.80;;;31.30;63.40;;;-144.05;31.26;125687.94;6109042;23;20440;-86
2022/07/20 08:43:24;;;;;;;27.13;14.90;;;31.30;63.00;;;-144.05;31.32;125687.94;6110451;23;20009;-87
2022/07/20 08:45:51;;;;;;;27.90;14.82;;;31.20;62.70;;;-144.05;30.38;125687.94;6137507;23;20009;-84
2022/07/20 08:48:19;;;;;;;25.15;15.23;;;31.40;60.90;;;-144.05;30.06;125687.94;6133289;23;20065;-87
2022/07/20 08:50:47;;;;;;;24.65;14.98;;;31.40;60.00;;;-144.05;30.00;125687.94;6108009;23;20013;-91
2022/07/20 08:53:23;;;;;;;19.80;15.32;;;31.50;60.00;;;-144.05;30.30;125687.94;6139823;23;20010;-84
2022/07/20 08:55:49;;;;;;;22.85;15.75;;;31.80;61.00;;;-144.05;29.65;125687.94;6140575;23;20057;-86
2022/07/20 08:58:16;;;;;;;22.77;16.65;;;31.90;59.20;;;-144.05;29.17;125687.94;6111177;23;20015;-88
2022/07/20 09:00:42;;;;;;;22.55;14.73;;;32.30;59.50;;;-144.05;29.71;125687.94;6140477;23;20037;-87
2022/07/20 09:03:11;;;;;;;26.63;15.90;;;32.40;60.10;;;-144.05;29.52;125687.94;6139670;23;20416;-86
2022/07/20 09:06:15;;;;;;;21.80;15.05;;;32.20;58.80;;;-144.05;29.14;125687.94;6138169;23;20014;-89
2022/07/20 09:09:05;;;;;;;24.08;15.25;;;32.60;59.10;;;-144.05;28.61;125687.94;6140587;23;20065;-87
2022/07/20 09:11:33;;;;;;;23.20;15.50;;;32.80;56.90;;;-144.05;28.75;125687.94;6132405;23;20041;-88
2022/07/20 09:14:00;;;;;;;21.13;14.70;;;32.80;57.50;;;-144.05;28.64;125687.94;6134810;23;20006;-89
2022/07/20 09:16:46;;;;;;;23.33;15.95;;;32.80;56.80;;;-144.05;28.62;125687.94;6114334;23;20010;-83
2022/07/20 09:19:15;;;;;;;20.90;15.63;;;32.80;56.60;;;-144.05;28.61;125687.94;6142096;23;19998;-86
2022/07/20 09:21:51;;;;;;;22.98;16.05;;;32.80;56.70;;;-144.05;28.81;125687.94;6119087;23;20504;-88
2022/07/20 09:24:23;;;;;;;24.42;15.48;;;32.80;57.90;;;-144.05;28.46;125687.94;6137207;23;20440;-87
2022/07/20 09:27:11;;;;;;;21.95;14.45;;;33.00;56.50;;;-144.05;28.50;125687.94;6136284;23;20033;-87
2022/07/20 09:29:38;;;;;;;23.95;15.50;;;33.00;56.30;;;-144.05;28.43;125687.94;6142156;23;20002;-87
2022/07/20 09:32:13;;;;;;;19.90;14.73;;;33.00;57.20;;;-144.05;28.72;125687.94;6140446;23;20033;-87
2022/07/20 09:34:39;;;;;;;25.95;15.20;;;33.20;57.50;;;-144.05;28.54;125687.94;6115035;23;20013;-85
2022/07/20 09:37:17;;;;;;;23.55;15.93;;;33.00;56.00;;;-144.05;28.50;125687.94;6138048;23;20017;-85
2022/07/20 09:40:01;;;;;;;20.15;14.80;;;33.00;56.70;;;-144.05;28.25;125687.94;6110464;23;20090;-87
2022/07/20 09:42:42;;;;;;;27.40;16.67;;;33.20;56.40;;;-144.05;27.86;125687.94;6135099;23;20010;-86
2022/07/20 09:45:29;;;;;;;22.45;16.08;;;33.50;56.00;;;-144.05;27.98;125687.94;6110735;23;20010;-86
2022/07/20 09:48:12;;;;;;;21.80;15.00;;;33.50;55.30;;;-144.05;28.02;125687.94;6136378;23;20009;-87
2022/07/20 09:50:43;;;;;;;18.25;15.57;;;33.60;55.40;;;-144.05;27.94;125687.94;6109853;23;20048;-88
2022/07/20 09:53:12;;;;;;;29.45;16.38;;;33.60;55.30;;;-144.05;26.95;125687.94;6137629;23;20025;-88
2022/07/20 09:55:39;;;;;;;18.35;15.65;;;33.80;54.00;;;-144.05;27.62;125687.94;6140302;23;20009;-87
2022/07/20 09:58:07;;;;;;;20.70;15.13;;;33.70;54.30;;;-144.05;28.40;125687.94;6135356;23;20068;-86
2022/07/20 10:00:36;;;;;;;22.00;14.32;;;33.90;56.60;;;-144.05;27.27;125687.94;6134693;23;20010;-86
2022/07/20 10:03:04;;;;;;;22.58;14.13;;;34.20;54.60;;;-144.05;27.21;125687.94;6135767;23;20038;-86
2022/07/20 10:05:36;;;;;;;22.70;15.38;;;34.20;54.30;;;-144.05;26.94;125687.94;6137409;23;20002;-88
2022/07/20 10:08:07;;;;;;;19.85;13.30;;;34.30;53.40;;;-144.05;27.01;125687.94;6107141;23;20006;-87
2022/07/20 10:10:34;;;;;;;15.95;12.98;;;34.20;53.80;;;-144.05;27.13;125687.94;6132508;23;20348;-87
2022/07/20 10:13:00;;;;;;;21.08;13.88;;;34.30;54.40;;;-144.05;26.58;125687.94;6132153;23;20348;-88
2022/07/20 10:15:44;;;;;;;17.48;13.15;;;34.60;53.00;;;-144.05;26.67;125687.94;6139632;23;20025;-88
2022/07/20 10:18:13;;;;;;;17.88;12.48;;;34.90;52.80;;;-144.05;26.52;125687.94;6122599;23;20006;-87
2022/07/20 10:20:40;;;;;;;16.73;11.95;;;34.60;51.90;;;-144.05;27.00;125687.94;6133142;23;20013;-86
2022/07/20 10:23:16;;;;;;;14.27;12.38;;;34.60;53.10;;;-144.05;26.33;125687.94;6131554;23;20010;-86